Plato — 8PRX — position and weather

sailwx.info

Track history (hours):
 
Tides and Currents Weather Stations Pressure Air Temp Water Temp Dewpoint Dewpoint Depression Visibility Wind Speed Wind Dir Waves Ship Positions

Plato

Last reported at 2017-May-25 22:00 UTC. Time now 2017-May-25 22:03 UTC.
Position N 50°10' W 003°42'.

Length 89 m; draft 3.1 m.

Type: Cargo ship. MMSI: 314189000.

Date/timePositionNaut miles runAvg speedWind from/ knotsBaromVisibWave heightAir tempDewpointWater temp
2017-May-25 22:00N 50°10' W 003°42'510.5
2017-May-25 21:30N 50°11' W 003°34'5 9.7
2017-May-25 21:00N 50°12' W 003°26'5 9.0
2017-May-25 20:30N 50°12' W 003°19'4 8.6
2017-May-25 20:00N 50°13' W 003°13'4 8.2
2017-May-25 19:30N 50°14' W 003°06'4 8.0
2017-May-25 19:00N 50°14' W 003°00'4 7.9
2017-May-25 18:30N 50°15' W 002°54'4 8.0
2017-May-25 18:00N 50°16' W 002°48'4 8.3
2017-May-25 17:30N 50°16' W 002°41'4 8.8
2017-May-25 17:00N 50°17' W 002°35'5 9.4
2017-May-25 16:26N 50°18' W 002°26'410.0
2017-May-25 16:00N 50°18' W 002°20'610.8
2017-May-25 15:27N 50°19' W 002°10'511.8
2017-May-25 15:00N 50°20' W 002°02'1312.8
2017-May-25 14:00N 50°22' W 001°43'713.2
2017-May-25 13:30N 50°23' W 001°32'713.3
2017-May-25 13:00N 50°24' W 001°22'712.9
2017-May-25 12:30N 50°25' W 001°12'612.6
2017-May-25 12:00N 50°26' W 001°02'612.3
2017-May-25 11:30N 50°27' W 000°53'611.1
2017-May-25 11:00N 50°28' W 000°44'5 9.3
2017-May-25 10:30N 50°29' W 000°37'4 8.3
2017-May-25 10:00N 50°29' W 000°31'4 7.9
2017-May-25 09:30N 50°30' W 000°24'4 7.5
2017-May-25 09:00N 50°31' W 000°19'4 7.2
2017-May-25 08:30N 50°31' W 000°13'3 7.0
2017-May-25 08:00N 50°32' W 000°08'3 7.0
2017-May-25 07:30N 50°32' W 000°02'4 7.3
2017-May-25 07:00N 50°33' E 000°03'4 7.7
2017-May-25 06:30N 50°34' E 000°09'5 8.4
2017-May-25 05:56N 50°35' E 000°17'8 9.5
2017-May-25 05:06N 50°37' E 000°29'110.2
2017-May-25 05:00N 50°37' E 000°30'510.4
2017-May-25 04:30N 50°40' E 000°37'510.7
2017-May-25 04:00N 50°43' E 000°44'510.5
2017-May-25 03:30N 50°46' E 000°51'810.1
2017-May-25 02:41N 50°51' E 001°02'4 9.6
2017-May-25 02:15N 50°53' E 001°07'3 9.3
2017-May-25 01:55N 50°55' E 001°11'4 8.8
2017-May-25 01:27N 50°58' E 001°15'4 8.0
2017-May-25 01:00N 51°00' E 001°20'4 7.3
2017-May-25 00:30N 51°03' E 001°24'3 6.9
2017-May-25 00:00N 51°05' E 001°28'3 6.4
2017-May-24 23:30N 51°07' E 001°32'3 6.4
2017-May-24 23:00N 51°09' E 001°36'3 6.9
2017-May-24 22:30N 51°11' E 001°40'4 7.4
2017-May-24 22:00N 51°14' E 001°45'4 8.6
2017-May-24 21:30N 51°17' E 001°49'5 9.4
2017-May-24 21:00N 51°21' E 001°54'510.6
2017-May-24 20:30N 51°25' E 001°59'5 9.9
2017-May-24 20:00N 51°24' E 002°07'5 9.9
2017-May-24 19:30N 51°23' E 002°15'510.5
2017-May-24 19:00N 51°23' E 002°23'511.0
2017-May-24 18:31N 51°23' E 002°32'510.6
2017-May-24 18:00N 51°22' E 002°41'5 9.9
2017-May-24 17:30N 51°22' E 002°49'510.7
2017-May-24 17:00N 51°22' E 002°57'611.1
2017-May-24 16:30N 51°22' E 003°06'611.3
2017-May-24 16:00N 51°23' E 003°15'611.7
2017-May-24 15:30N 51°24' E 003°24'612.0
2017-May-24 15:00N 51°26' E 003°34'510.7
2017-May-24 14:30N 51°25' E 003°42'8 8.4
2017-May-24 13:30N 51°22' E 003°54'4 8.6
2017-May-24 13:00N 51°25' E 003°58'3 5.3
2017-May-24 12:30N 51°25' E 004°02'3 5.7
2017-May-24 12:00N 51°22' E 004°04'3 5.9
2017-May-24 11:30N 51°23' E 004°09'2 5.0
2017-May-24 11:00N 51°23' E 004°13'4 7.5
2017-May-24 10:28N 51°19' E 004°16'3 6.8
2017-May-24 10:00N 51°17' E 004°20'0 0.4
2017-May-24 09:29N 51°17' E 004°20'0 0.0
2017-May-24 09:00N 51°17' E 004°20'1 1.4
2017-May-24 08:30N 51°16' E 004°21'1 2.9
2017-May-24 08:00N 51°15' E 004°23'0 0.0
2017-May-24 07:26N 51°15' E 004°23'0 0.0
2017-May-24 06:59N 51°15' E 004°23'0 0.0
2017-May-24 06:29N 51°15' E 004°23'0 0.0
2017-May-24 05:59N 51°15' E 004°23'0 0.0
2017-May-24 05:29N 51°15' E 004°23'0 0.0
2017-May-24 04:59N 51°15' E 004°23'0 0.0
2017-May-24 04:29N 51°15' E 004°23'0 0.0
2017-May-24 03:59N 51°15' E 004°23'0 0.0
2017-May-24 03:29N 51°15' E 004°23'0 0.0
2017-May-24 02:59N 51°15' E 004°23'0 0.0
2017-May-24 02:29N 51°15' E 004°23'0 0.0
2017-May-24 01:59N 51°15' E 004°23'0 0.0
2017-May-24 01:29N 51°15' E 004°23'0 0.0
2017-May-24 00:59N 51°15' E 004°23'0 0.0
2017-May-24 00:29N 51°15' E 004°23'0 0.0
2017-May-23 23:56N 51°15' E 004°23'0 0.0
2017-May-23 23:25N 51°15' E 004°23'0 0.0
2017-May-23 22:59N 51°15' E 004°23'0 0.0
2017-May-23 22:26N 51°15' E 004°23'0 0.0
2017-May-23 21:58N 51°15' E 004°23'0 0.0
2017-May-23 21:28N 51°15' E 004°23'0 0.0
2017-May-23 20:58N 51°15' E 004°23'0 0.0
2017-May-23 20:28N 51°15' E 004°23'0 1.0
2017-May-23 20:00N 51°15' E 004°22'1 1.1
2017-May-23 19:28N 51°15' E 004°22'0 0.0
2017-May-23 18:58N 51°15' E 004°22'0 0.0
2017-May-23 18:25N 51°15' E 004°22'0 0.0
2017-May-23 17:58N 51°15' E 004°22'0 0.0
2017-May-23 17:25N 51°15' E 004°22'0 0.0
2017-May-23 16:58N 51°15' E 004°22'0 0.0
2017-May-23 16:28N 51°15' E 004°22'0 0.0
2017-May-23 15:58N 51°15' E 004°22'0 0.0
2017-May-23 15:28N 51°15' E 004°22'0 0.0
2017-May-23 14:58N 51°15' E 004°22'0 0.0
2017-May-23 14:28N 51°15' E 004°22'0 0.0
2017-May-23 13:28N 51°15' E 004°22'0 0.0
2017-May-23 12:58N 51°15' E 004°22'0 0.0
2017-May-23 12:30N 51°15' E 004°22'2 3.9
2017-May-23 12:01N 51°16' E 004°20'5 8.2
2017-May-23 11:26N 51°21' E 004°18'0 0.2
2017-May-23 10:04N 51°21' E 004°17'0 1.0
2017-May-23 09:57N 51°21' E 004°17'1 1.7
2017-May-23 09:27N 51°21' E 004°16'3 5.3
2017-May-23 08:57N 51°23' E 004°13'4 8.0
2017-May-23 08:30N 51°22' E 004°07'5 9.1
2017-May-23 08:00N 51°25' E 004°02'3 7.0
2017-May-23 07:30N 51°23' E 003°57'510.1
2017-May-23 07:00N 51°21' E 003°50'5 9.6
2017-May-23 06:30N 51°23' E 003°43'5 9.6
2017-May-23 06:00N 51°25' E 003°37'5 8.7
2017-May-23 05:29N 51°25' E 003°29'4 8.5
2017-May-23 05:00N 51°24' E 003°23'4 7.9
2017-May-23 04:31N 51°24' E 003°17'4 7.8
2017-May-23 04:00N 51°23' E 003°11'4 7.9
2017-May-23 03:30N 51°22' E 003°05'4 8.4
2017-May-23 03:00N 51°22' E 002°58'5 8.9
2017-May-23 02:30N 51°22' E 002°51'4 8.7
2017-May-23 02:00N 51°23' E 002°44'4 7.8
2017-May-23 01:27N 51°22' E 002°37'3 7.5
2017-May-23 01:00N 51°22' E 002°32'4 7.9
2017-May-23 00:28N 51°21' E 002°25'4 8.5
2017-May-22 23:59N 51°18' E 002°20'5 9.7
2017-May-22 23:30N 51°16' E 002°14'5 9.9
2017-May-22 23:00N 51°13' E 002°07'5 9.8
2017-May-22 22:30N 51°11' E 002°00'510.2
2017-May-22 22:00N 51°08' E 001°53'610.7
2017-May-22 21:29N 51°05' E 001°46'611.9
2017-May-22 20:58N 51°01' E 001°39'511.6
2017-May-22 20:30N 50°58' E 001°31'68 8.3
2017-May-22 12:18N 50°20' E 000°02'3 7.5
2017-May-22 11:55N 50°19' W 000°03'3 7.4
2017-May-22 11:30N 50°19' W 000°07'5 7.4
2017-May-22 10:52N 50°17' W 000°14'30 8.1
2017-May-22 07:10N 50°09' W 000°59'2 9.9
2017-May-22 07:00N 50°09' W 001°01'510.3
2017-May-22 06:28N 50°07' W 001°10'510.6
2017-May-22 06:00N 50°06' W 001°17'611.1
2017-May-22 05:30N 50°04' W 001°26'611.4
2017-May-22 05:00N 50°03' W 001°34'611.5
2017-May-22 04:30N 50°01' W 001°42'3510.3
2017-May-22 01:05N 49°51' W 002°35'1 8.6
2017-May-22 00:56N 49°51' W 002°37'4 8.4
2017-May-22 00:30N 49°50' W 002°43'4 8.1
2017-May-22 00:00N 49°49' W 002°49'4 7.8
2017-May-21 23:30N 49°49' W 002°55'4 7.6
2017-May-21 23:00N 49°49' W 003°01'4 7.4
2017-May-21 22:30N 49°49' W 003°06'4 7.3
2017-May-21 22:00N 49°49' W 003°12'4 7.2
2017-May-21 21:30N 49°49' W 003°18'4 7.2
2017-May-21 21:00N 49°49' W 003°23'4 7.3
2017-May-21 20:30N 49°50' W 003°29'4 7.4
2017-May-21 20:00N 49°50' W 003°35'4 7.6
2017-May-21 19:27N 49°50' W 003°41'3 7.8
2017-May-21 19:00N 49°50' W 003°46'4 8.0
2017-May-21 18:28N 49°51' W 003°53'4 8.2
2017-May-21 17:56N 49°50' W 003°60'4 8.5
2017-May-21 17:30N 49°51' W 004°05'4 8.6
2017-May-21 17:00N 49°51' W 004°12'4 8.6
2017-May-21 16:30N 49°51' W 004°19'4 8.8
2017-May-21 16:00N 49°52' W 004°26'4 8.8
2017-May-21 15:30N 49°52' W 004°32'5 9.0
2017-May-21 15:00N 49°52' W 004°39'5 9.0
2017-May-21 14:29N 49°52' W 004°47'19 9.2
2017-May-21 12:29N 49°53' W 005°15'39 6.3
2017-May-21 06:15N 50°20' W 006°00'2 8.7
2017-May-21 06:00N 50°22' W 005°58'5 9.1
2017-May-21 05:29N 50°25' W 005°52'4 9.1
2017-May-21 05:00N 50°27' W 005°47'4 8.9
2017-May-21 04:30N 50°30' W 005°42'4 8.8
2017-May-21 04:00N 50°33' W 005°36'4 8.5
2017-May-21 03:30N 50°36' W 005°31'4 8.4
2017-May-21 03:00N 50°39' W 005°26'4 8.2
2017-May-21 02:30N 50°41' W 005°21'4 8.0
2017-May-21 02:00N 50°44' W 005°16'4 7.8
2017-May-21 01:30N 50°47' W 005°12'4 7.6
2017-May-21 01:00N 50°49' W 005°07'4 7.6
2017-May-21 00:30N 50°52' W 005°03'4 7.4
2017-May-21 00:00N 50°54' W 004°58'4 7.4
2017-May-20 23:30N 50°56' W 004°54'4 7.2
2017-May-20 23:00N 50°59' W 004°49'4 7.1
2017-May-20 22:30N 51°01' W 004°45'4 7.1
2017-May-20 21:57N 51°04' W 004°40'3 7.1
2017-May-20 21:30N 51°06' W 004°37'4 7.1
2017-May-20 20:56N 51°08' W 004°32'58 9.1
2017-May-20 14:36N 51°25' W 003°04'3 9.7
2017-May-20 14:18N 51°28' W 003°02'5 5.5
2017-May-20 13:20N 51°33' W 002°59'0 0.0
2017-May-19 18:13N 51°33' W 002°59'0 0.0
2017-May-19 14:16N 51°33' W 002°59'0 0.0
2017-May-17 22:23N 51°33' W 002°59'0 0.9
2017-May-17 22:00N 51°33' W 002°59'1 1.2
2017-May-17 21:22N 51°32' W 002°59'3 7.2
2017-May-17 21:00N 51°30' W 003°00'54 4.0
2017-May-17 07:15N 51°23' W 004°27'11 9.6
2017-May-17 06:05N 51°25' W 004°45'1 8.9
2017-May-17 06:00N 51°25' W 004°46'4 8.7
2017-May-17 05:30N 51°25' W 004°53'4 8.8
2017-May-17 05:00N 51°26' W 004°60'5 9.1
2017-May-17 04:31N 51°27' W 005°07'4 8.2
2017-May-17 04:01N 51°27' W 005°13'4 8.4
2017-May-17 03:30N 51°28' W 005°20'6 8.0
2017-May-17 02:45N 51°29' W 005°30'2 7.6
2017-May-17 02:28N 51°29' W 005°33'9 7.6
2017-May-17 01:18N 51°31' W 005°47'34 8.1
2017-May-16 21:05N 51°36' W 006°42'1 8.4
2017-May-16 21:00N 51°36' W 006°43'16 8.3
2017-May-16 19:02N 51°39' W 007°09'1 8.2
2017-May-16 18:56N 51°39' W 007°10'3 8.2
2017-May-16 18:31N 51°40' W 007°16'5 8.1
2017-May-16 17:56N 51°40' W 007°23'3 8.0
2017-May-16 17:30N 51°41' W 007°29'4 8.2
2017-May-16 17:01N 51°42' W 007°35'4 8.1
2017-May-16 16:30N 51°42' W 007°42'4 8.1
2017-May-16 16:00N 51°43' W 007°48'4 8.3
2017-May-16 15:31N 51°44' W 007°55'4 8.3
2017-May-16 15:00N 51°44' W 008°01'9 8.5
2017-May-16 14:01N 51°45' W 008°15'4 7.3
2017-May-16 13:31N 51°49' W 008°16'2 4.9
2017-May-16 13:00N 51°50' W 008°19'4 8.9
2017-May-16 12:30N 51°54' W 008°24'2 1.1
2017-May-16 10:27N 51°54' W 008°28'  
Track history (hours):
 
Tides and Currents Weather Stations Pressure Air Temp Water Temp Dewpoint Dewpoint Depression Visibility Wind Speed Wind Dir Waves Ship Positions

Plato

Last reported at 2017-May-25 22:00 UTC. Time now 2017-May-25 22:03 UTC.
Position N 50°10' W 003°42'.

Length 89 m; draft 3.1 m.

Type: Cargo ship. MMSI: 314189000.

Date/timePositionNaut miles runAvg speedWind from/ knotsBaromVisibWave heightAir tempDewpointWater temp
2017-May-25 22:00N 50°10' W 003°42'510.5
2017-May-25 21:30N 50°11' W 003°34'5 9.7
2017-May-25 21:00N 50°12' W 003°26'5 9.0
2017-May-25 20:30N 50°12' W 003°19'4 8.6
2017-May-25 20:00N 50°13' W 003°13'4 8.2
2017-May-25 19:30N 50°14' W 003°06'4 8.0
2017-May-25 19:00N 50°14' W 003°00'4 7.9
2017-May-25 18:30N 50°15' W 002°54'4 8.0
2017-May-25 18:00N 50°16' W 002°48'4 8.3
2017-May-25 17:30N 50°16' W 002°41'4 8.8
2017-May-25 17:00N 50°17' W 002°35'5 9.4
2017-May-25 16:26N 50°18' W 002°26'410.0
2017-May-25 16:00N 50°18' W 002°20'610.8
2017-May-25 15:27N 50°19' W 002°10'511.8
2017-May-25 15:00N 50°20' W 002°02'1312.8
2017-May-25 14:00N 50°22' W 001°43'713.2
2017-May-25 13:30N 50°23' W 001°32'713.3
2017-May-25 13:00N 50°24' W 001°22'712.9
2017-May-25 12:30N 50°25' W 001°12'612.6
2017-May-25 12:00N 50°26' W 001°02'612.3
2017-May-25 11:30N 50°27' W 000°53'611.1
2017-May-25 11:00N 50°28' W 000°44'5 9.3
2017-May-25 10:30N 50°29' W 000°37'4 8.3
2017-May-25 10:00N 50°29' W 000°31'4 7.9
2017-May-25 09:30N 50°30' W 000°24'4 7.5
2017-May-25 09:00N 50°31' W 000°19'4 7.2
2017-May-25 08:30N 50°31' W 000°13'3 7.0
2017-May-25 08:00N 50°32' W 000°08'3 7.0
2017-May-25 07:30N 50°32' W 000°02'4 7.3
2017-May-25 07:00N 50°33' E 000°03'4 7.7
2017-May-25 06:30N 50°34' E 000°09'5 8.4
2017-May-25 05:56N 50°35' E 000°17'8 9.5
2017-May-25 05:06N 50°37' E 000°29'110.2
2017-May-25 05:00N 50°37' E 000°30'510.4
2017-May-25 04:30N 50°40' E 000°37'510.7
2017-May-25 04:00N 50°43' E 000°44'510.5
2017-May-25 03:30N 50°46' E 000°51'810.1
2017-May-25 02:41N 50°51' E 001°02'4 9.6
2017-May-25 02:15N 50°53' E 001°07'3 9.3
2017-May-25 01:55N 50°55' E 001°11'4 8.8
2017-May-25 01:27N 50°58' E 001°15'4 8.0
2017-May-25 01:00N 51°00' E 001°20'4 7.3
2017-May-25 00:30N 51°03' E 001°24'3 6.9
2017-May-25 00:00N 51°05' E 001°28'3 6.4
2017-May-24 23:30N 51°07' E 001°32'3 6.4
2017-May-24 23:00N 51°09' E 001°36'3 6.9
2017-May-24 22:30N 51°11' E 001°40'4 7.4
2017-May-24 22:00N 51°14' E 001°45'4 8.6
2017-May-24 21:30N 51°17' E 001°49'5 9.4
2017-May-24 21:00N 51°21' E 001°54'510.6
2017-May-24 20:30N 51°25' E 001°59'5 9.9
2017-May-24 20:00N 51°24' E 002°07'5 9.9
2017-May-24 19:30N 51°23' E 002°15'510.5
2017-May-24 19:00N 51°23' E 002°23'511.0
2017-May-24 18:31N 51°23' E 002°32'510.6
2017-May-24 18:00N 51°22' E 002°41'5 9.9
2017-May-24 17:30N 51°22' E 002°49'510.7
2017-May-24 17:00N 51°22' E 002°57'611.1
2017-May-24 16:30N 51°22' E 003°06'611.3
2017-May-24 16:00N 51°23' E 003°15'611.7
2017-May-24 15:30N 51°24' E 003°24'612.0
2017-May-24 15:00N 51°26' E 003°34'510.7
2017-May-24 14:30N 51°25' E 003°42'8 8.4
2017-May-24 13:30N 51°22' E 003°54'4 8.6
2017-May-24 13:00N 51°25' E 003°58'3 5.3
2017-May-24 12:30N 51°25' E 004°02'3 5.7
2017-May-24 12:00N 51°22' E 004°04'3 5.9
2017-May-24 11:30N 51°23' E 004°09'2 5.0
2017-May-24 11:00N 51°23' E 004°13'4 7.5
2017-May-24 10:28N 51°19' E 004°16'3 6.8
2017-May-24 10:00N 51°17' E 004°20'0 0.4
2017-May-24 09:29N 51°17' E 004°20'0 0.0
2017-May-24 09:00N 51°17' E 004°20'1 1.4
2017-May-24 08:30N 51°16' E 004°21'1 2.9
2017-May-24 08:00N 51°15' E 004°23'0 0.0
2017-May-24 07:26N 51°15' E 004°23'0 0.0
2017-May-24 06:59N 51°15' E 004°23'0 0.0
2017-May-24 06:29N 51°15' E 004°23'0 0.0
2017-May-24 05:59N 51°15' E 004°23'0 0.0
2017-May-24 05:29N 51°15' E 004°23'0 0.0
2017-May-24 04:59N 51°15' E 004°23'0 0.0
2017-May-24 04:29N 51°15' E 004°23'0 0.0
2017-May-24 03:59N 51°15' E 004°23'0 0.0
2017-May-24 03:29N 51°15' E 004°23'0 0.0
2017-May-24 02:59N 51°15' E 004°23'0 0.0
2017-May-24 02:29N 51°15' E 004°23'0 0.0
2017-May-24 01:59N 51°15' E 004°23'0 0.0
2017-May-24 01:29N 51°15' E 004°23'0 0.0
2017-May-24 00:59N 51°15' E 004°23'0 0.0
2017-May-24 00:29N 51°15' E 004°23'0 0.0
2017-May-23 23:56N 51°15' E 004°23'0 0.0
2017-May-23 23:25N 51°15' E 004°23'0 0.0
2017-May-23 22:59N 51°15' E 004°23'0 0.0
2017-May-23 22:26N 51°15' E 004°23'0 0.0
2017-May-23 21:58N 51°15' E 004°23'0 0.0
2017-May-23 21:28N 51°15' E 004°23'0 0.0
2017-May-23 20:58N 51°15' E 004°23'0 0.0
2017-May-23 20:28N 51°15' E 004°23'0 1.0
2017-May-23 20:00N 51°15' E 004°22'1 1.1
2017-May-23 19:28N 51°15' E 004°22'0 0.0
2017-May-23 18:58N 51°15' E 004°22'0 0.0
2017-May-23 18:25N 51°15' E 004°22'0 0.0
2017-May-23 17:58N 51°15' E 004°22'0 0.0
2017-May-23 17:25N 51°15' E 004°22'0 0.0
2017-May-23 16:58N 51°15' E 004°22'0 0.0
2017-May-23 16:28N 51°15' E 004°22'0 0.0
2017-May-23 15:58N 51°15' E 004°22'0 0.0
2017-May-23 15:28N 51°15' E 004°22'0 0.0
2017-May-23 14:58N 51°15' E 004°22'0 0.0
2017-May-23 14:28N 51°15' E 004°22'0 0.0
2017-May-23 13:28N 51°15' E 004°22'0 0.0
2017-May-23 12:58N 51°15' E 004°22'0 0.0
2017-May-23 12:30N 51°15' E 004°22'2 3.9
2017-May-23 12:01N 51°16' E 004°20'5 8.2
2017-May-23 11:26N 51°21' E 004°18'0 0.2
2017-May-23 10:04N 51°21' E 004°17'0 1.0
2017-May-23 09:57N 51°21' E 004°17'1 1.7
2017-May-23 09:27N 51°21' E 004°16'3 5.3
2017-May-23 08:57N 51°23' E 004°13'4 8.0
2017-May-23 08:30N 51°22' E 004°07'5 9.1
2017-May-23 08:00N 51°25' E 004°02'3 7.0
2017-May-23 07:30N 51°23' E 003°57'510.1
2017-May-23 07:00N 51°21' E 003°50'5 9.6
2017-May-23 06:30N 51°23' E 003°43'5 9.6
2017-May-23 06:00N 51°25' E 003°37'5 8.7
2017-May-23 05:29N 51°25' E 003°29'4 8.5
2017-May-23 05:00N 51°24' E 003°23'4 7.9
2017-May-23 04:31N 51°24' E 003°17'4 7.8
2017-May-23 04:00N 51°23' E 003°11'4 7.9
2017-May-23 03:30N 51°22' E 003°05'4 8.4
2017-May-23 03:00N 51°22' E 002°58'5 8.9
2017-May-23 02:30N 51°22' E 002°51'4 8.7
2017-May-23 02:00N 51°23' E 002°44'4 7.8
2017-May-23 01:27N 51°22' E 002°37'3 7.5
2017-May-23 01:00N 51°22' E 002°32'4 7.9
2017-May-23 00:28N 51°21' E 002°25'4 8.5
2017-May-22 23:59N 51°18' E 002°20'5 9.7
2017-May-22 23:30N 51°16' E 002°14'5 9.9
2017-May-22 23:00N 51°13' E 002°07'5 9.8
2017-May-22 22:30N 51°11' E 002°00'510.2
2017-May-22 22:00N 51°08' E 001°53'610.7
2017-May-22 21:29N 51°05' E 001°46'611.9
2017-May-22 20:58N 51°01' E 001°39'511.6
2017-May-22 20:30N 50°58' E 001°31'68 8.3
2017-May-22 12:18N 50°20' E 000°02'3 7.5
2017-May-22 11:55N 50°19' W 000°03'3 7.4
2017-May-22 11:30N 50°19' W 000°07'5 7.4
2017-May-22 10:52N 50°17' W 000°14'30 8.1
2017-May-22 07:10N 50°09' W 000°59'2 9.9
2017-May-22 07:00N 50°09' W 001°01'510.3
2017-May-22 06:28N 50°07' W 001°10'510.6
2017-May-22 06:00N 50°06' W 001°17'611.1
2017-May-22 05:30N 50°04' W 001°26'611.4
2017-May-22 05:00N 50°03' W 001°34'611.5
2017-May-22 04:30N 50°01' W 001°42'3510.3
2017-May-22 01:05N 49°51' W 002°35'1 8.6
2017-May-22 00:56N 49°51' W 002°37'4 8.4
2017-May-22 00:30N 49°50' W 002°43'4 8.1
2017-May-22 00:00N 49°49' W 002°49'4 7.8
2017-May-21 23:30N 49°49' W 002°55'4 7.6
2017-May-21 23:00N 49°49' W 003°01'4 7.4
2017-May-21 22:30N 49°49' W 003°06'4 7.3
2017-May-21 22:00N 49°49' W 003°12'4 7.2
2017-May-21 21:30N 49°49' W 003°18'4 7.2
2017-May-21 21:00N 49°49' W 003°23'4 7.3
2017-May-21 20:30N 49°50' W 003°29'4 7.4
2017-May-21 20:00N 49°50' W 003°35'4 7.6
2017-May-21 19:27N 49°50' W 003°41'3 7.8
2017-May-21 19:00N 49°50' W 003°46'4 8.0
2017-May-21 18:28N 49°51' W 003°53'4 8.2
2017-May-21 17:56N 49°50' W 003°60'4 8.5
2017-May-21 17:30N 49°51' W 004°05'4 8.6
2017-May-21 17:00N 49°51' W 004°12'4 8.6
2017-May-21 16:30N 49°51' W 004°19'4 8.8
2017-May-21 16:00N 49°52' W 004°26'4 8.8
2017-May-21 15:30N 49°52' W 004°32'5 9.0
2017-May-21 15:00N 49°52' W 004°39'5 9.0
2017-May-21 14:29N 49°52' W 004°47'19 9.2
2017-May-21 12:29N 49°53' W 005°15'39 6.3
2017-May-21 06:15N 50°20' W 006°00'2 8.7
2017-May-21 06:00N 50°22' W 005°58'5 9.1
2017-May-21 05:29N 50°25' W 005°52'4 9.1
2017-May-21 05:00N 50°27' W 005°47'4 8.9
2017-May-21 04:30N 50°30' W 005°42'4 8.8
2017-May-21 04:00N 50°33' W 005°36'4 8.5
2017-May-21 03:30N 50°36' W 005°31'4 8.4
2017-May-21 03:00N 50°39' W 005°26'4 8.2
2017-May-21 02:30N 50°41' W 005°21'4 8.0
2017-May-21 02:00N 50°44' W 005°16'4 7.8
2017-May-21 01:30N 50°47' W 005°12'4 7.6
2017-May-21 01:00N 50°49' W 005°07'4 7.6
2017-May-21 00:30N 50°52' W 005°03'4 7.4
2017-May-21 00:00N 50°54' W 004°58'4 7.4
2017-May-20 23:30N 50°56' W 004°54'4 7.2
2017-May-20 23:00N 50°59' W 004°49'4 7.1
2017-May-20 22:30N 51°01' W 004°45'4 7.1
2017-May-20 21:57N 51°04' W 004°40'3 7.1
2017-May-20 21:30N 51°06' W 004°37'4 7.1
2017-May-20 20:56N 51°08' W 004°32'58 9.1
2017-May-20 14:36N 51°25' W 003°04'3 9.7
2017-May-20 14:18N 51°28' W 003°02'5 5.5
2017-May-20 13:20N 51°33' W 002°59'0 0.0
2017-May-19 18:13N 51°33' W 002°59'0 0.0
2017-May-19 14:16N 51°33' W 002°59'0 0.0
2017-May-17 22:23N 51°33' W 002°59'0 0.9
2017-May-17 22:00N 51°33' W 002°59'1 1.2
2017-May-17 21:22N 51°32' W 002°59'3 7.2
2017-May-17 21:00N 51°30' W 003°00'54 4.0
2017-May-17 07:15N 51°23' W 004°27'11 9.6
2017-May-17 06:05N 51°25' W 004°45'1 8.9
2017-May-17 06:00N 51°25' W 004°46'4 8.7
2017-May-17 05:30N 51°25' W 004°53'4 8.8
2017-May-17 05:00N 51°26' W 004°60'5 9.1
2017-May-17 04:31N 51°27' W 005°07'4 8.2
2017-May-17 04:01N 51°27' W 005°13'4 8.4
2017-May-17 03:30N 51°28' W 005°20'6 8.0
2017-May-17 02:45N 51°29' W 005°30'2 7.6
2017-May-17 02:28N 51°29' W 005°33'9 7.6
2017-May-17 01:18N 51°31' W 005°47'34 8.1
2017-May-16 21:05N 51°36' W 006°42'1 8.4
2017-May-16 21:00N 51°36' W 006°43'16 8.3
2017-May-16 19:02N 51°39' W 007°09'1 8.2
2017-May-16 18:56N 51°39' W 007°10'3 8.2
2017-May-16 18:31N 51°40' W 007°16'5 8.1
2017-May-16 17:56N 51°40' W 007°23'3 8.0
2017-May-16 17:30N 51°41' W 007°29'4 8.2
2017-May-16 17:01N 51°42' W 007°35'4 8.1
2017-May-16 16:30N 51°42' W 007°42'4 8.1
2017-May-16 16:00N 51°43' W 007°48'4 8.3
2017-May-16 15:31N 51°44' W 007°55'4 8.3
2017-May-16 15:00N 51°44' W 008°01'9 8.5
2017-May-16 14:01N 51°45' W 008°15'4 7.3
2017-May-16 13:31N 51°49' W 008°16'2 4.9
2017-May-16 13:00N 51°50' W 008°19'4 8.9
2017-May-16 12:30N 51°54' W 008°24'2 1.1
2017-May-16 10:27N 51°54' W 008°28'  

Dump ship's entire track history